Погода Паульена неделю

Витебская область, Белоруссия

24 - 30 мая
  • 24мая
    Сегодня
    +10°
    +24°
    Ясно и безоблачно
    ВремяПогодаТемператураВлажностьДавлениеВетер, м/сВероятность осадков
    00:00Ясно и безоблачно+15°C58 %759 мм1.6 м/с2 %
    03:00Ясно и безоблачно+13°C63 %760 мм1.6 м/с2 %
    06:00Ясно и безоблачно+12°C68 %761 мм1.7 м/с2 %
    09:00Ясно и безоблачно+17°C58 %761 мм2.5 м/с2 %
    12:00Ясно и безоблачно+21°C44 %761 мм3.0 м/с2 %
    15:00Ясно и безоблачно+23°C41 %761 мм2.8 м/с2 %
    18:00Ясно и безоблачно+23°C42 %760 мм2.7 м/с2 %
    21:00Ясно и безоблачно+18°C58 %760 мм1.8 м/с2 %
  • 25мая
    Суббота
    +11°
    +26°
    Ясно и безоблачно
    ВремяПогодаТемператураВлажностьДавлениеВетер, м/сВероятность осадков
    00:00Ясно и безоблачно+14°C62 %760 мм1.2 м/с2 %
    03:00Ясно и безоблачно+11°C70 %760 мм1.0 м/с2 %
    06:00Ясно и безоблачно+11°C75 %760 мм1.2 м/с2 %
    09:00Ясно и безоблачно+18°C63 %760 мм1.8 м/с2 %
    12:00Ясно и безоблачно+23°C51 %760 мм2.2 м/с2 %
    15:00Ясно и безоблачно+25°C42 %759 мм2.2 м/с2 %
    18:00Ясно и безоблачно+25°C42 %758 мм2.1 м/с6 %
    21:00Ясно и безоблачно+20°C61 %758 мм1.3 м/с2 %
  • 26мая
    Воскресенье
    +13°
    +27°
    Облачно с прояснениями
    ВремяПогодаТемператураВлажностьДавлениеВетер, м/сВероятность осадков
    00:00Ясно и безоблачно+15°C61 %758 мм0.6 м/с2 %
    03:00Ясно и безоблачно+13°C81 %758 мм0.6 м/с2 %
    06:00Ясно и безоблачно+14°C88 %758 мм0.7 м/с2 %
    09:00Ясно и безоблачно+20°C67 %759 мм1.1 м/с2 %
    12:00Ясно и безоблачно+24°C41 %759 мм1.7 м/с2 %
    15:00Облачно с прояснениями+26°C37 %758 мм1.6 м/с2 %
    18:00Практически безоблачно+26°C40 %758 мм1.5 м/с2 %
    21:00Ясно и безоблачно+21°C61 %757 мм1.1 м/с2 %
  • 27мая
    Понедельник
    +13°
    +26°
    Пасмурно, сплошная облачность
    ВремяПогодаТемператураВлажностьДавлениеВетер, м/сВероятность осадков
    00:00Ясно и безоблачно+17°C73 %758 мм0.9 м/с2 %
    03:00Ясно и безоблачно+14°C85 %758 мм0.7 м/с2 %
    06:00Ясно и безоблачно+15°C88 %759 мм1.0 м/с2 %
    09:00Практически безоблачно+20°C73 %759 мм1.3 м/с2 %
    12:00Ясно и безоблачно+24°C57 %759 мм2.0 м/с9 %
    15:00Пасмурно, сплошная облачность+25°C52 %759 мм2.1 м/с18 %
    18:00Небольшая облачность и лёгкий дождик+25°C69 %758 мм1.7 м/с31 %
    21:00Ясно и безоблачно+20°C79 %758 мм1.1 м/с10 %
  • 28мая
    Вторник
    +12°
    +27°
    Ясно и безоблачно
    ВремяПогодаТемператураВлажностьДавлениеВетер, м/сВероятность осадков
    00:00Ясно и безоблачно+17°C86 %758 мм0.8 м/с2 %
    03:00Ясно и безоблачно+14°C92 %758 мм0.7 м/с2 %
    06:00Ясно и безоблачно+15°C90 %758 мм1.2 м/с2 %
    09:00Практически безоблачно+20°C64 %759 мм1.9 м/с2 %
    12:00Ясно и безоблачно+23°C51 %758 мм2.0 м/с10 %
    15:00Ясно и безоблачно+26°C41 %758 мм2.3 м/с15 %
    18:00Ясно и безоблачно+26°C40 %757 мм2.1 м/с15 %
    21:00Ясно и безоблачно+21°C54 %757 мм1.3 м/с3 %
Мы используем cookies
Соглашаюсь